createdAt,value
2018-05-29T00:01:11.223Z,8.20
2018-05-29T00:02:43.031Z,9.00
2018-05-29T00:04:14.845Z,9.40
2018-05-29T00:05:46.650Z,10.60
2018-05-29T00:07:18.462Z,9.00
2018-05-29T00:08:50.272Z,11.20
2018-05-29T00:10:22.086Z,11.10
2018-05-29T00:11:53.891Z,10.70
2018-05-29T00:13:25.702Z,11.30
2018-05-29T00:14:57.510Z,11.20
2018-05-29T00:16:29.328Z,11.00
2018-05-29T00:18:01.682Z,10.50
2018-05-29T00:19:32.940Z,11.10
2018-05-29T00:21:04.752Z,12.40
2018-05-29T00:22:36.562Z,12.90
2018-05-29T00:24:08.371Z,12.70
2018-05-29T00:25:40.182Z,12.30
2018-05-29T00:27:11.991Z,11.40
2018-05-29T00:28:43.804Z,12.20
2018-05-29T00:30:15.611Z,12.00
2018-05-29T00:31:47.420Z,11.80
2018-05-29T00:33:19.229Z,13.00
2018-05-29T00:34:51.039Z,12.30
2018-05-29T00:36:22.953Z,12.70
2018-05-29T00:37:54.658Z,12.60
2018-05-29T00:39:26.469Z,14.20
2018-05-29T00:40:58.279Z,14.80
2018-05-29T00:42:30.092Z,15.40
2018-05-29T00:44:01.905Z,14.50
2018-05-29T00:45:33.708Z,15.80
2018-05-29T00:47:05.518Z,15.00
2018-05-29T00:48:37.427Z,15.40
2018-05-29T00:50:09.136Z,16.80
2018-05-29T00:51:40.948Z,14.90
2018-05-29T00:53:12.756Z,14.70
2018-05-29T00:54:44.666Z,14.60
2018-05-29T00:56:16.376Z,14.60
2018-05-29T00:57:48.186Z,16.70
2018-05-29T00:59:19.999Z,16.60
2018-05-29T01:00:51.806Z,16.70
2018-05-29T01:02:23.615Z,18.10
2018-05-29T01:03:55.424Z,16.50
2018-05-29T01:05:27.234Z,18.70
2018-05-29T01:06:59.043Z,19.10
2018-05-29T01:08:30.854Z,18.60
2018-05-29T01:10:02.666Z,19.10
2018-05-29T01:11:34.473Z,17.30
2018-05-29T01:13:06.535Z,17.30
2018-05-29T01:14:38.091Z,17.10
2018-05-29T01:16:09.902Z,17.80
2018-05-29T01:17:41.712Z,17.90
2018-05-29T01:19:13.522Z,19.10
2018-05-29T01:20:45.331Z,18.20
2018-05-29T01:22:17.143Z,17.70
2018-05-29T01:23:48.950Z,18.90
2018-05-29T01:25:20.759Z,18.90
2018-05-29T01:26:52.569Z,18.10
2018-05-29T01:28:24.378Z,17.90
2018-05-29T01:29:56.187Z,18.00
2018-05-29T01:31:28.097Z,16.70
2018-05-29T01:32:59.807Z,17.20
2018-05-29T01:34:31.617Z,16.50
2018-05-29T01:36:03.426Z,17.10
2018-05-29T01:37:35.239Z,15.70
2018-05-29T01:39:07.045Z,17.60
2018-05-29T01:40:38.855Z,16.70
2018-05-29T01:42:10.666Z,14.50
2018-05-29T01:43:42.573Z,12.80
2018-05-29T01:45:14.282Z,12.40
2018-05-29T01:46:46.092Z,13.40
2018-05-29T01:48:17.902Z,13.50
2018-05-29T01:49:49.815Z,13.80
2018-05-29T01:51:21.524Z,13.40
2018-05-29T01:52:53.330Z,13.80
2018-05-29T01:54:25.140Z,12.30
2018-05-29T01:55:56.949Z,12.10
2018-05-29T01:57:28.759Z,14.30
2018-05-29T01:59:00.568Z,11.90
2018-05-29T02:00:32.378Z,11.70
2018-05-29T02:02:04.188Z,11.20
2018-05-29T02:03:35.998Z,11.00
2018-05-29T02:05:07.807Z,11.20
2018-05-29T02:06:39.616Z,11.60
2018-05-29T02:08:11.525Z,11.30
2018-05-29T02:09:43.234Z,11.30
2018-05-29T02:11:15.044Z,10.00
2018-05-29T02:12:46.853Z,11.10
2018-05-29T02:14:18.762Z,11.50
2018-05-29T02:15:50.472Z,10.20
2018-05-29T02:17:22.282Z,9.80
2018-05-29T02:18:54.091Z,11.40
2018-05-29T02:20:25.900Z,11.90
2018-05-29T02:21:57.710Z,11.30
2018-05-29T02:23:29.520Z,11.80
2018-05-29T02:25:01.328Z,11.50
2018-05-29T02:26:33.243Z,11.60
2018-05-29T02:28:04.946Z,11.50
2018-05-29T02:29:36.756Z,12.10
2018-05-29T02:31:08.565Z,10.80
2018-05-29T02:32:40.375Z,12.30
2018-05-29T02:34:12.187Z,11.00
2018-05-29T02:35:43.994Z,11.80
2018-05-29T02:37:15.802Z,11.70
2018-05-29T02:38:47.617Z,10.90
2018-05-29T02:40:19.421Z,10.90
2018-05-29T02:41:51.230Z,11.30
2018-05-29T02:43:23.039Z,10.70
2018-05-29T02:44:54.949Z,10.80
2018-05-29T02:46:26.657Z,11.10
2018-05-29T02:47:58.470Z,11.10
2018-05-29T02:49:30.280Z,11.30
2018-05-29T02:51:02.084Z,11.90
2018-05-29T02:52:33.893Z,11.80
2018-05-29T02:54:05.703Z,11.40
2018-05-29T02:55:37.512Z,13.10
2018-05-29T02:57:09.421Z,12.80
2018-05-29T02:58:41.130Z,13.70
2018-05-29T03:00:12.939Z,13.20
2018-05-29T03:01:44.748Z,13.50
2018-05-29T03:03:16.708Z,13.10
2018-05-29T03:04:48.365Z,14.50
2018-05-29T03:06:20.175Z,13.60
2018-05-29T03:07:51.984Z,14.20
2018-05-29T03:09:23.794Z,15.40
2018-05-29T03:10:55.602Z,15.70
2018-05-29T03:12:27.411Z,15.80
2018-05-29T03:13:59.224Z,15.40
2018-05-29T03:15:31.029Z,14.90
2018-05-29T03:17:02.838Z,16.00
2018-05-29T03:18:34.648Z,16.60
2018-05-29T03:20:06.457Z,16.30
2018-05-29T03:21:38.365Z,16.20
2018-05-29T03:23:10.075Z,15.70
2018-05-29T03:24:41.883Z,15.90
2018-05-29T03:26:13.692Z,15.90
2018-05-29T03:27:45.652Z,14.80
2018-05-29T03:29:17.310Z,15.20
2018-05-29T03:30:49.120Z,16.20
2018-05-29T03:32:20.932Z,16.80
2018-05-29T03:33:52.737Z,16.00
2018-05-29T03:35:24.546Z,14.90
2018-05-29T03:36:56.355Z,14.60
2018-05-29T03:38:28.164Z,15.50
2018-05-29T03:40:00.076Z,14.30
2018-05-29T03:41:31.782Z,14.40
2018-05-29T03:43:03.591Z,15.50
2018-05-29T03:44:35.399Z,14.50
2018-05-29T03:46:07.208Z,15.60
2018-05-29T03:47:39.018Z,15.50
2018-05-29T03:49:10.828Z,16.40
2018-05-29T03:50:42.636Z,16.10
2018-05-29T03:52:14.699Z,15.10
2018-05-29T03:53:46.253Z,13.90
2018-05-29T03:55:18.062Z,14.60
2018-05-29T03:56:49.871Z,14.80
2018-05-29T03:58:21.929Z,15.50
2018-05-29T03:59:53.488Z,15.10
2018-05-29T04:01:25.298Z,17.30
2018-05-29T04:02:57.110Z,16.20
2018-05-29T04:04:28.915Z,14.70
2018-05-29T04:06:00.725Z,14.50
2018-05-29T04:07:32.533Z,15.20
2018-05-29T04:09:04.342Z,14.70
2018-05-29T04:10:36.151Z,14.70
2018-05-29T04:12:07.959Z,14.60
2018-05-29T04:13:39.798Z,14.50
2018-05-29T04:15:11.577Z,14.00
2018-05-29T04:16:43.488Z,13.70
2018-05-29T04:18:15.195Z,13.10
2018-05-29T04:19:47.004Z,14.00
2018-05-29T04:21:18.815Z,14.00
2018-05-29T04:22:50.873Z,13.50
2018-05-29T04:24:22.431Z,13.10
2018-05-29T04:25:54.242Z,13.20
2018-05-29T04:27:26.048Z,12.40
2018-05-29T04:28:57.962Z,12.00
2018-05-29T04:30:29.666Z,13.30
2018-05-29T04:32:01.503Z,13.70
2018-05-29T04:33:33.283Z,13.90
2018-05-29T04:35:05.343Z,12.40
2018-05-29T04:36:36.901Z,12.50
2018-05-29T04:38:08.711Z,12.50
2018-05-29T04:39:40.537Z,12.90
2018-05-29T04:41:12.328Z,13.20
2018-05-29T04:42:44.136Z,13.20
2018-05-29T04:44:15.945Z,13.20
2018-05-29T04:45:47.754Z,13.30
2018-05-29T04:47:19.563Z,13.40
2018-05-29T04:48:51.371Z,13.90
2018-05-29T04:50:23.186Z,14.00
2018-05-29T04:51:54.996Z,13.90
2018-05-29T04:53:27.149Z,14.30
2018-05-29T04:54:58.607Z,13.20
2018-05-29T04:56:30.424Z,14.90
2018-05-29T04:58:02.224Z,14.60
2018-05-29T04:59:34.038Z,14.90
2018-05-29T05:01:05.843Z,14.40
2018-05-29T05:02:37.715Z,16.90
2018-05-29T05:04:09.460Z,15.40
2018-05-29T05:05:41.418Z,15.70
2018-05-29T05:07:13.077Z,15.90
2018-05-29T05:08:44.919Z,15.10
2018-05-29T05:10:16.695Z,15.00
2018-05-29T05:11:48.607Z,14.30
2018-05-29T05:13:20.313Z,15.60
2018-05-29T05:14:52.122Z,16.00
2018-05-29T05:16:23.930Z,16.20
2018-05-29T05:17:55.739Z,15.40
2018-05-29T05:19:27.548Z,16.10
2018-05-29T05:20:59.356Z,15.20
2018-05-29T05:22:31.165Z,15.20
2018-05-29T05:24:02.973Z,16.80
2018-05-29T05:25:34.782Z,15.50
2018-05-29T05:27:06.592Z,15.80
2018-05-29T05:28:38.402Z,15.20
2018-05-29T05:30:10.314Z,15.70
2018-05-29T05:31:42.017Z,16.10
2018-05-29T05:33:13.825Z,16.60
2018-05-29T05:34:45.635Z,16.20
2018-05-29T05:36:17.443Z,18.60
2018-05-29T05:37:49.253Z,17.60
2018-05-29T05:39:21.062Z,17.50
2018-05-29T05:40:52.868Z,17.10
2018-05-29T05:42:24.677Z,17.70
2018-05-29T05:43:56.515Z,17.10
2018-05-29T05:45:28.294Z,17.80
2018-05-29T05:47:00.106Z,18.40
2018-05-29T05:48:32.012Z,16.90
2018-05-29T05:50:03.728Z,18.60
2018-05-29T05:51:35.531Z,17.70
2018-05-29T05:53:07.360Z,17.40
2018-05-29T05:54:39.397Z,17.70
2018-05-29T05:56:10.955Z,16.90
2018-05-29T05:57:42.763Z,16.50
2018-05-29T05:59:14.575Z,17.50
2018-05-29T06:00:46.381Z,17.60
2018-05-29T06:02:18.190Z,18.40
2018-05-29T06:03:49.998Z,17.70
2018-05-29T06:05:21.807Z,18.90
2018-05-29T06:06:53.715Z,20.90
2018-05-29T06:08:25.427Z,20.30
2018-05-29T06:09:57.236Z,20.10
2018-05-29T06:11:29.044Z,20.40
2018-05-29T06:13:00.855Z,22.00
2018-05-29T06:14:32.664Z,21.00
2018-05-29T06:16:04.471Z,20.70
2018-05-29T06:17:36.278Z,20.90
2018-05-29T06:19:08.089Z,20.70
2018-05-29T06:20:39.896Z,18.70
2018-05-29T06:22:11.706Z,20.60
2018-05-29T06:23:43.512Z,18.80
2018-05-29T06:25:15.676Z,20.50
2018-05-29T06:26:47.131Z,20.80
2018-05-29T06:28:18.939Z,21.60
2018-05-29T06:29:50.748Z,18.80
2018-05-29T06:31:22.556Z,18.40
2018-05-29T06:32:54.369Z,19.60
2018-05-29T06:34:26.174Z,19.10
2018-05-29T06:35:57.981Z,19.70
2018-05-29T06:37:29.789Z,20.60
2018-05-29T06:39:01.600Z,20.00
2018-05-29T06:40:33.407Z,19.70
2018-05-29T06:42:05.217Z,19.90
2018-05-29T06:43:37.125Z,19.90
2018-05-29T06:45:08.867Z,19.40
2018-05-29T06:46:40.643Z,21.50
2018-05-29T06:48:12.451Z,20.30
2018-05-29T06:49:44.411Z,20.20
2018-05-29T06:51:16.069Z,21.00
2018-05-29T06:52:47.877Z,21.30
2018-05-29T06:54:19.687Z,23.50
2018-05-29T06:55:51.495Z,21.50
2018-05-29T06:57:23.303Z,21.40
2018-05-29T06:58:55.112Z,22.40
2018-05-29T07:00:26.921Z,22.70
2018-05-29T07:01:58.980Z,24.40
2018-05-29T07:03:30.537Z,24.10
2018-05-29T07:05:02.347Z,23.30
2018-05-29T07:06:34.154Z,23.60
2018-05-29T07:08:05.964Z,26.00
2018-05-29T07:09:37.771Z,24.70
2018-05-29T07:11:09.577Z,26.10
2018-05-29T07:12:41.386Z,25.60
2018-05-29T07:14:13.195Z,25.90
2018-05-29T07:15:45.003Z,26.30
2018-05-29T07:17:16.811Z,27.90
2018-05-29T07:18:48.620Z,28.90
2018-05-29T07:20:20.779Z,28.90
2018-05-29T07:21:52.236Z,28.00
2018-05-29T07:23:24.045Z,28.20
2018-05-29T07:24:55.857Z,28.50
2018-05-29T07:26:27.913Z,26.30
2018-05-29T07:27:59.470Z,27.50
2018-05-29T07:29:31.279Z,29.20
2018-05-29T07:31:03.088Z,28.90
2018-05-29T07:32:34.995Z,26.40
2018-05-29T07:34:06.704Z,25.50
2018-05-29T07:35:38.512Z,26.50
2018-05-29T07:37:10.320Z,26.20
2018-05-29T07:38:42.228Z,27.10
2018-05-29T07:40:13.937Z,28.60
2018-05-29T07:41:45.747Z,27.60
2018-05-29T07:43:17.554Z,32.10
2018-05-29T07:44:49.362Z,30.00
2018-05-29T07:46:21.170Z,29.90
2018-05-29T07:47:52.979Z,28.70
2018-05-29T07:49:24.792Z,32.60
2018-05-29T07:50:56.597Z,30.10
2018-05-29T07:52:28.405Z,32.70
2018-05-29T07:54:00.213Z,32.00
2018-05-29T07:55:32.021Z,32.20
2018-05-29T07:57:04.180Z,32.60
2018-05-29T07:58:35.640Z,31.80
2018-05-29T08:00:07.452Z,29.90
2018-05-29T08:01:39.255Z,31.20
2018-05-29T08:03:11.064Z,33.60
2018-05-29T08:04:42.872Z,33.70
2018-05-29T08:06:14.682Z,31.70
2018-05-29T08:07:46.489Z,35.20
2018-05-29T08:09:18.448Z,35.30
2018-05-29T08:10:50.107Z,33.30
2018-05-29T08:12:21.915Z,33.00
2018-05-29T08:13:53.726Z,32.30
2018-05-29T08:15:25.632Z,31.40
2018-05-29T08:16:57.364Z,33.00
2018-05-29T08:18:29.174Z,32.60
2018-05-29T08:20:00.957Z,31.90
2018-05-29T08:21:32.787Z,33.50
2018-05-29T08:23:04.591Z,33.70
2018-05-29T08:24:36.449Z,33.50
2018-05-29T08:26:08.192Z,32.70
2018-05-29T08:27:40.251Z,33.90
2018-05-29T08:29:11.808Z,35.50
2018-05-29T08:30:43.638Z,33.90
2018-05-29T08:32:15.425Z,34.10
2018-05-29T08:33:47.484Z,33.10
2018-05-29T08:35:19.042Z,34.80
2018-05-29T08:36:50.850Z,36.00
2018-05-29T08:38:22.659Z,37.40
2018-05-29T08:39:54.571Z,33.70
2018-05-29T08:41:26.276Z,37.00
2018-05-29T08:42:58.083Z,35.00
2018-05-29T08:44:29.892Z,34.90
2018-05-29T08:46:01.725Z,37.10
2018-05-29T08:47:33.537Z,36.00
2018-05-29T08:49:05.323Z,37.40
2018-05-29T08:50:37.126Z,37.60
2018-05-29T08:52:09.034Z,35.60
2018-05-29T08:53:40.812Z,38.40
2018-05-29T08:55:12.621Z,38.60
2018-05-29T08:56:44.433Z,35.70
2018-05-29T08:58:16.337Z,38.00
2018-05-29T08:59:48.048Z,36.20
2018-05-29T09:01:19.853Z,37.60
2018-05-29T09:02:51.593Z,36.00
2018-05-29T09:04:23.403Z,35.60
2018-05-29T09:05:55.208Z,37.80
2018-05-29T09:07:27.016Z,37.00
2018-05-29T09:08:58.828Z,35.50
2018-05-29T09:10:30.733Z,36.40
2018-05-29T09:12:02.441Z,36.90
2018-05-29T09:13:34.249Z,37.00
2018-05-29T09:15:06.057Z,36.50
2018-05-29T09:16:37.966Z,35.70
2018-05-29T09:18:09.675Z,37.30
2018-05-29T09:19:41.481Z,36.10
2018-05-29T09:21:13.292Z,36.60
2018-05-29T09:22:45.097Z,37.00
2018-05-29T09:24:16.908Z,39.80
2018-05-29T09:25:48.713Z,35.00
2018-05-29T09:27:20.524Z,37.00
2018-05-29T09:28:52.429Z,38.70
2018-05-29T09:30:24.139Z,36.80
2018-05-29T09:31:56.004Z,36.40
2018-05-29T09:33:27.755Z,32.80
2018-05-29T09:34:59.562Z,33.40
2018-05-29T09:38:03.180Z,32.90
2018-05-29T09:39:34.986Z,32.80
2018-05-29T09:41:06.809Z,34.70
2018-05-29T09:42:38.604Z,35.50
2018-05-29T09:44:10.412Z,33.20
2018-05-29T09:45:42.244Z,36.50
2018-05-29T09:47:14.229Z,35.40
2018-05-29T09:48:45.836Z,38.20
2018-05-29T09:50:17.644Z,36.10
2018-05-29T09:51:49.453Z,37.70
2018-05-29T09:53:21.264Z,37.60
2018-05-29T09:54:53.072Z,33.10
2018-05-29T09:56:24.878Z,36.70
2018-05-29T09:57:56.686Z,36.60
2018-05-29T09:59:28.744Z,37.70
2018-05-29T10:01:00.304Z,35.50
2018-05-29T10:02:32.111Z,35.40
2018-05-29T10:04:03.920Z,38.50
2018-05-29T10:05:35.828Z,38.90
2018-05-29T10:07:07.587Z,37.30
2018-05-29T10:08:39.346Z,38.00
2018-05-29T10:10:11.157Z,36.80
2018-05-29T10:11:42.965Z,33.80
2018-05-29T10:13:14.840Z,31.60
2018-05-29T10:14:46.882Z,34.30
2018-05-29T10:16:18.387Z,34.40
2018-05-29T10:17:50.295Z,33.40
2018-05-29T10:19:22.063Z,34.10
2018-05-29T10:20:53.813Z,34.10
2018-05-29T10:22:25.621Z,32.20
2018-05-29T10:23:57.529Z,33.00
2018-05-29T10:25:29.237Z,33.20
2018-05-29T10:27:01.046Z,35.20
2018-05-29T10:30:04.665Z,33.00
2018-05-29T10:31:36.473Z,31.40
2018-05-29T10:33:08.281Z,31.20
2018-05-29T10:34:40.091Z,31.70
2018-05-29T10:36:11.900Z,28.60
2018-05-29T10:37:43.718Z,29.00
2018-05-29T10:39:15.520Z,29.20
2018-05-29T10:40:47.530Z,28.10
2018-05-29T10:43:51.249Z,24.90
2018-05-29T10:45:23.346Z,27.10
2018-05-29T10:46:54.565Z,26.00
2018-05-29T10:48:26.383Z,27.70
2018-05-29T10:49:58.185Z,26.70
2018-05-29T10:51:29.995Z,27.20
2018-05-29T10:53:01.807Z,25.80
2018-05-29T10:56:05.424Z,23.00
2018-05-29T11:00:41.055Z,21.90
2018-05-29T11:02:12.765Z,22.00
2018-05-29T11:03:44.779Z,21.00
2018-05-29T11:05:16.284Z,22.90
2018-05-29T11:06:48.141Z,20.90
2018-05-29T11:08:19.909Z,22.80
2018-05-29T11:09:51.718Z,21.00
2018-05-29T11:12:55.424Z,20.70
2018-05-29T11:14:27.154Z,20.20
2018-05-29T11:15:58.967Z,20.40
2018-05-29T11:19:03.117Z,19.70
2018-05-29T11:20:34.815Z,18.10
2018-05-29T11:22:06.219Z,18.70
2018-05-29T11:23:38.065Z,19.60
2018-05-29T11:25:09.844Z,19.80
2018-05-29T11:26:41.724Z,19.70
2018-05-29T11:28:13.675Z,16.50
2018-05-29T11:29:45.303Z,18.60
2018-05-29T11:31:17.166Z,18.80
2018-05-29T11:35:52.644Z,17.00
2018-05-29T11:37:24.359Z,17.80
2018-05-29T11:38:56.172Z,17.80
2018-05-29T11:40:28.189Z,18.20
2018-05-29T11:41:59.848Z,18.20
2018-05-29T11:43:31.634Z,19.00
2018-05-29T11:46:35.247Z,17.10
2018-05-29T11:48:07.062Z,17.40
2018-05-29T11:49:39.640Z,17.30
2018-05-29T11:51:10.692Z,18.20
2018-05-29T11:52:42.556Z,18.10
2018-05-29T11:54:14.423Z,17.60
2018-05-29T11:55:46.139Z,18.10
2018-05-29T11:57:17.955Z,17.80
2018-05-29T11:58:49.770Z,19.10
2018-05-29T12:00:21.587Z,18.90
2018-05-29T12:03:25.425Z,17.60
2018-05-29T12:04:57.239Z,17.30
2018-05-29T12:06:28.856Z,16.30
2018-05-29T12:08:00.750Z,16.50
2018-05-29T12:09:32.485Z,17.20
2018-05-29T12:12:36.218Z,16.10
2018-05-29T12:14:07.932Z,17.50
2018-05-29T12:15:39.750Z,17.70
2018-05-29T12:17:11.566Z,17.50
2018-05-29T12:18:43.586Z,17.50
2018-05-29T12:20:15.402Z,17.40
2018-05-29T12:23:19.041Z,17.20
2018-05-29T12:24:50.650Z,16.90
2018-05-29T12:26:22.468Z,17.10
2018-05-29T12:27:54.286Z,16.30
2018-05-29T12:29:26.111Z,17.40
2018-05-29T12:30:58.048Z,17.70
2018-05-29T12:32:29.755Z,18.00
2018-05-29T12:34:01.558Z,16.50
2018-05-29T12:35:33.417Z,17.70
2018-05-29T12:37:05.203Z,18.50
2018-05-29T12:38:37.015Z,16.40
2018-05-29T12:41:40.954Z,14.70
2018-05-29T12:43:13.208Z,13.30
2018-05-29T12:44:44.288Z,13.70
2018-05-29T12:46:18.285Z,15.00
2018-05-29T12:47:48.227Z,15.30
2018-05-29T12:49:19.885Z,15.10
2018-05-29T12:52:23.379Z,15.60
2018-05-29T12:53:55.812Z,16.10
2018-05-29T12:55:27.018Z,16.50
2018-05-29T12:58:30.655Z,13.30
2018-05-29T13:00:02.477Z,13.10
2018-05-29T13:03:06.192Z,13.90
2018-05-29T13:04:38.238Z,14.30
2018-05-29T13:06:09.750Z,13.60
2018-05-29T13:07:41.873Z,13.60
2018-05-29T13:09:13.690Z,13.80
2018-05-29T13:12:17.024Z,14.00
2018-05-29T13:13:48.844Z,13.80
2018-05-29T13:15:20.662Z,12.40
2018-05-29T13:16:52.786Z,13.50
2018-05-29T13:18:24.300Z,13.10
2018-05-29T13:19:56.424Z,13.50
2018-05-29T13:21:27.962Z,13.20
2018-05-29T13:23:00.100Z,14.30
2018-05-29T13:24:31.579Z,14.30
2018-05-29T13:26:03.599Z,14.30
2018-05-29T13:27:35.620Z,14.20
2018-05-29T13:29:07.037Z,14.20
2018-05-29T13:32:10.676Z,14.20
2018-05-29T13:33:42.495Z,12.20
2018-05-29T13:35:14.354Z,11.10
2018-05-29T13:36:46.137Z,11.40
2018-05-29T13:39:50.299Z,10.90
2018-05-29T13:41:21.597Z,10.90
2018-05-29T13:42:53.417Z,11.00
2018-05-29T13:44:25.242Z,10.90
2018-05-29T13:47:29.184Z,11.70
2018-05-29T13:49:00.901Z,9.70
2018-05-29T13:50:32.529Z,10.40
2018-05-29T13:52:04.867Z,10.00
2018-05-29T13:53:36.173Z,9.10
2018-05-29T13:55:07.983Z,9.50
2018-05-29T13:56:40.325Z,8.80
2018-05-29T13:58:11.621Z,8.90
2018-05-29T13:59:43.447Z,9.00
2018-05-29T14:01:15.791Z,8.80
2018-05-29T14:02:47.392Z,8.70
2018-05-29T14:05:50.829Z,9.10
2018-05-29T14:07:22.598Z,7.50
2018-05-29T14:08:54.397Z,7.10
2018-05-29T14:10:26.208Z,7.80
2018-05-29T14:13:29.831Z,8.70
2018-05-29T14:15:01.711Z,8.00
2018-05-29T14:16:34.198Z,8.40
2018-05-29T14:18:05.293Z,7.30
2018-05-29T14:19:37.116Z,8.60
2018-05-29T14:21:09.139Z,10.10
2018-05-29T14:22:40.966Z,9.30
2018-05-29T14:24:12.579Z,7.60
2018-05-29T14:25:45.026Z,6.50
2018-05-29T14:27:16.429Z,7.70
2018-05-29T14:28:48.058Z,6.90
2018-05-29T14:30:20.068Z,8.80
2018-05-29T14:31:52.415Z,8.10
2018-05-29T14:34:55.330Z,7.40
2018-05-29T14:36:27.165Z,6.90
2018-05-29T14:37:59.581Z,5.90
2018-05-29T14:42:34.961Z,5.20
2018-05-29T14:45:38.383Z,6.00
2018-05-29T14:47:09.901Z,5.60
2018-05-29T14:48:41.731Z,6.90
2018-05-29T14:50:13.545Z,6.70
2018-05-29T14:51:46.299Z,7.00
2018-05-29T14:53:17.392Z,6.20
2018-05-29T14:57:52.653Z,6.90
2018-05-29T14:59:24.627Z,6.30
2018-05-29T15:00:56.600Z,6.00
2018-05-29T15:02:28.119Z,6.10
2018-05-29T15:07:03.891Z,6.90
2018-05-29T15:08:35.951Z,7.50
2018-05-29T15:10:07.752Z,7.10
2018-05-29T15:11:39.058Z,6.80
2018-05-29T15:13:10.874Z,7.00
2018-05-29T15:14:42.704Z,6.80
2018-05-29T15:16:14.822Z,7.10
2018-05-29T15:19:18.168Z,7.40
2018-05-29T15:20:50.509Z,7.00
2018-05-29T15:22:21.807Z,7.90
2018-05-29T15:23:53.633Z,8.00
2018-05-29T15:25:25.553Z,8.30
2018-05-29T15:26:57.276Z,7.00
2018-05-29T15:28:29.099Z,7.60
2018-05-29T15:30:01.131Z,6.50
2018-05-29T15:31:32.951Z,6.20
2018-05-29T15:34:36.687Z,7.20
2018-05-29T15:36:08.213Z,6.60
2018-05-29T15:37:40.036Z,6.30
2018-05-29T15:39:12.068Z,6.40
2018-05-29T15:40:43.765Z,5.80
2018-05-29T15:42:15.708Z,7.50
2018-05-29T15:43:47.479Z,6.20
2018-05-29T15:45:19.151Z,6.60
2018-05-29T15:46:50.972Z,5.80
2018-05-29T15:48:22.999Z,6.20
2018-05-29T15:49:55.144Z,4.80
2018-05-29T15:51:26.467Z,5.90
2018-05-29T15:52:58.472Z,6.30
2018-05-29T15:54:30.394Z,5.60
2018-05-29T15:56:01.914Z,6.50
2018-05-29T15:59:05.563Z,7.80
2018-05-29T16:00:37.386Z,6.60
2018-05-29T16:03:42.062Z,8.40
2018-05-29T16:06:44.983Z,6.60
2018-05-29T16:08:16.505Z,7.40
2018-05-29T16:09:48.329Z,7.40
2018-05-29T16:12:52.050Z,6.70
2018-05-29T16:14:23.793Z,6.20
2018-05-29T16:15:55.921Z,6.80
2018-05-29T16:17:27.444Z,7.60
2018-05-29T16:18:59.464Z,8.90
2018-05-29T16:20:31.086Z,11.00
2018-05-29T16:22:03.012Z,9.80
2018-05-29T16:23:34.781Z,15.80
2018-05-29T16:25:07.489Z,7.10
2018-05-29T16:26:39.165Z,5.40
2018-05-29T16:28:10.207Z,5.90
2018-05-29T16:29:42.706Z,5.40
2018-05-29T16:31:14.052Z,5.30
2018-05-29T16:34:18.102Z,5.00
2018-05-29T16:35:49.343Z,4.60
2018-05-29T16:37:21.171Z,4.60
2018-05-29T16:41:56.915Z,12.10
2018-05-29T16:43:28.437Z,14.40
2018-05-29T16:45:00.257Z,10.20
2018-05-29T16:46:32.161Z,8.50
2018-05-29T16:48:03.904Z,9.00
2018-05-29T16:49:36.031Z,14.60
2018-05-29T16:51:07.853Z,16.70
2018-05-29T16:52:39.371Z,24.20
2018-05-29T16:54:11.400Z,18.70
2018-05-29T16:55:43.018Z,24.80
2018-05-29T16:57:15.369Z,19.60
2018-05-29T16:58:46.665Z,5.20
2018-05-29T17:00:18.588Z,4.80
2018-05-29T17:01:50.403Z,4.50
2018-05-29T17:03:22.439Z,4.40
2018-05-29T17:04:53.963Z,4.30
2018-05-29T17:06:25.781Z,3.90
2018-05-29T17:07:57.604Z,5.20
2018-05-29T17:11:01.254Z,7.20
2018-05-29T17:12:33.079Z,6.30
2018-05-29T17:14:04.900Z,9.00
2018-05-29T17:15:36.724Z,5.10
2018-05-29T17:17:08.850Z,3.70
2018-05-29T17:18:40.996Z,4.90
2018-05-29T17:20:12.203Z,4.80
2018-05-29T17:21:44.019Z,5.00
2018-05-29T17:23:19.231Z,5.90
2018-05-29T17:24:47.666Z,5.60
2018-05-29T17:26:19.491Z,6.10
2018-05-29T17:27:51.315Z,5.90
2018-05-29T17:29:23.661Z,5.40
2018-05-29T17:30:54.969Z,5.60
2018-05-29T17:32:27.090Z,5.50
2018-05-29T17:33:58.606Z,5.50
2018-05-29T17:35:30.430Z,5.70
2018-05-29T17:37:02.354Z,5.50
2018-05-29T17:38:34.083Z,4.90
2018-05-29T17:40:07.187Z,5.50
2018-05-29T17:41:38.012Z,5.40
2018-05-29T17:43:10.069Z,5.20
2018-05-29T17:44:41.839Z,5.60
2018-05-29T17:46:13.203Z,5.30
2018-05-29T17:47:45.088Z,5.70
2018-05-29T17:49:17.363Z,4.70
2018-05-29T17:52:20.585Z,6.40
2018-05-29T17:53:53.145Z,6.90
2018-05-29T17:55:24.625Z,6.60
2018-05-29T17:56:56.155Z,6.90
2018-05-29T17:58:28.116Z,6.30
2018-05-29T17:59:59.642Z,7.10
2018-05-29T18:03:03.243Z,5.10
2018-05-29T18:06:08.815Z,4.90
2018-05-29T18:09:10.535Z,7.90
2018-05-29T18:10:42.353Z,7.50
2018-05-29T18:12:14.178Z,5.70
2018-05-29T18:13:45.998Z,5.80
2018-05-29T18:15:18.244Z,5.00
2018-05-29T18:16:50.220Z,5.60
2018-05-29T18:18:21.667Z,5.70
2018-05-29T18:19:53.490Z,5.50
2018-05-29T18:21:25.135Z,6.40
2018-05-29T18:22:57.435Z,5.60
2018-05-29T18:24:28.862Z,5.30
2018-05-29T18:26:00.593Z,5.30
2018-05-29T18:27:32.837Z,5.90
2018-05-29T18:29:04.581Z,5.00
2018-05-29T18:30:36.040Z,5.90
2018-05-29T18:33:39.879Z,5.70
2018-05-29T18:35:11.508Z,5.90
2018-05-29T18:36:43.431Z,5.50
2018-05-29T18:38:15.152Z,6.20
2018-05-29T18:41:18.794Z,6.00
2018-05-29T18:42:50.616Z,5.30
2018-05-29T18:44:22.466Z,6.40
2018-05-29T18:45:54.275Z,5.40
2018-05-29T18:47:26.077Z,5.50
2018-05-29T18:48:57.942Z,5.50
2018-05-29T18:50:29.723Z,5.50
2018-05-29T18:52:01.893Z,5.60
2018-05-29T18:53:33.461Z,5.60
2018-05-29T18:55:05.183Z,5.80
2018-05-29T18:58:09.931Z,6.40
2018-05-29T18:59:40.950Z,7.50
2018-05-29T19:01:12.470Z,6.80
2018-05-29T19:02:44.290Z,5.80
2018-05-29T19:04:16.111Z,5.80
2018-05-29T19:05:47.932Z,6.10
2018-05-29T19:07:19.754Z,5.50
2018-05-29T19:08:51.589Z,6.00
2018-05-29T19:10:23.397Z,5.20
2018-05-29T19:11:55.316Z,5.50
2018-05-29T19:14:58.857Z,7.10
2018-05-29T19:16:30.881Z,7.20
2018-05-29T19:18:02.503Z,7.10
2018-05-29T19:19:34.454Z,7.30
2018-05-29T19:21:06.171Z,7.30
2018-05-29T19:22:37.960Z,7.80
2018-05-29T19:24:09.782Z,8.70
2018-05-29T19:25:41.853Z,9.80
2018-05-29T19:27:13.421Z,10.50
2018-05-29T19:28:45.446Z,9.60
2018-05-29T19:30:17.174Z,9.80
2018-05-29T19:31:48.880Z,9.70
2018-05-29T19:33:21.224Z,10.20
2018-05-29T19:34:52.520Z,10.40
2018-05-29T19:36:24.342Z,11.70
2018-05-29T19:37:56.158Z,11.50
2018-05-29T19:39:28.008Z,11.20
2018-05-29T19:41:00.371Z,11.50
2018-05-29T19:44:03.434Z,11.00
2018-05-29T19:45:35.258Z,10.70
2018-05-29T19:47:07.071Z,10.80
2018-05-29T19:48:38.888Z,10.10
2018-05-29T19:50:11.242Z,10.90
2018-05-29T19:51:42.553Z,10.00
2018-05-29T19:53:14.344Z,10.30
2018-05-29T19:54:46.716Z,9.70
2018-05-29T19:56:17.980Z,10.50
2018-05-29T19:57:49.848Z,10.60
2018-05-29T19:59:21.649Z,10.60
2018-05-29T20:00:53.427Z,10.30
2018-05-29T20:02:25.243Z,11.30
2018-05-29T20:03:57.061Z,10.70
2018-05-29T20:05:28.880Z,11.00
2018-05-29T20:07:00.734Z,11.00
2018-05-29T20:08:32.611Z,12.10
2018-05-29T20:10:04.333Z,11.90
2018-05-29T20:11:36.143Z,14.00
2018-05-29T20:13:07.959Z,13.70
2018-05-29T20:14:39.775Z,13.90
2018-05-29T20:16:11.590Z,14.00
2018-05-29T20:17:43.406Z,13.40
2018-05-29T20:19:15.221Z,15.00
2018-05-29T20:20:47.036Z,14.50
2018-05-29T20:22:18.851Z,14.50
2018-05-29T20:23:50.666Z,15.70
2018-05-29T20:25:22.480Z,16.10
2018-05-29T20:26:54.395Z,15.90
2018-05-29T20:28:26.113Z,16.10
2018-05-29T20:29:57.923Z,16.40
2018-05-29T20:31:29.754Z,16.30
2018-05-29T20:33:01.554Z,16.30
2018-05-29T20:34:33.365Z,16.50
2018-05-29T20:36:05.181Z,15.90
2018-05-29T20:37:36.993Z,16.20
2018-05-29T20:39:08.808Z,17.00
2018-05-29T20:40:40.656Z,17.40
2018-05-29T20:42:12.433Z,15.90
2018-05-29T20:43:44.291Z,16.00
2018-05-29T20:45:16.164Z,16.80
2018-05-29T20:46:47.900Z,16.00
2018-05-29T20:48:19.685Z,16.20
2018-05-29T20:49:51.499Z,15.90
2018-05-29T20:51:23.311Z,17.70
2018-05-29T20:52:55.124Z,17.00
2018-05-29T20:54:26.937Z,17.30
2018-05-29T20:55:58.749Z,18.80
2018-05-29T20:57:30.562Z,17.60
2018-05-29T20:59:02.375Z,17.00
2018-05-29T21:00:34.187Z,17.60
2018-05-29T21:02:06.003Z,17.10
2018-05-29T21:03:37.913Z,16.00
2018-05-29T21:05:09.624Z,15.50
2018-05-29T21:06:41.437Z,15.20
2018-05-29T21:08:13.250Z,14.70
2018-05-29T21:09:45.061Z,14.10